createdAt,value
2018-12-01T00:01:10.831Z,15.37
2018-12-01T00:03:40.406Z,15.33
2018-12-01T00:06:25.756Z,16.23
2018-12-01T00:08:55.246Z,15.17
2018-12-01T00:11:25.805Z,16.23
2018-12-01T00:13:56.513Z,14.90
2018-12-01T00:16:26.270Z,16.00
2018-12-01T00:18:56.240Z,16.07
2018-12-01T00:21:25.742Z,17.57
2018-12-01T00:23:55.384Z,13.23
2018-12-01T00:26:25.114Z,14.77
2018-12-01T00:28:54.691Z,14.17
2018-12-01T00:31:24.954Z,14.53
2018-12-01T00:33:54.861Z,14.63
2018-12-01T00:36:25.229Z,16.00
2018-12-01T00:38:56.209Z,15.27
2018-12-01T00:41:25.739Z,14.93
2018-12-01T00:43:55.458Z,16.77
2018-12-01T00:46:25.210Z,14.97
2018-12-01T00:48:55.255Z,14.60
2018-12-01T00:51:24.722Z,13.03
2018-12-01T00:53:54.547Z,14.80
2018-12-01T00:56:24.654Z,13.00
2018-12-01T00:58:54.684Z,13.60
2018-12-01T01:01:24.590Z,14.27
2018-12-01T01:03:54.799Z,14.37
2018-12-01T01:06:24.416Z,14.53
2018-12-01T01:08:54.144Z,15.60
2018-12-01T01:11:24.049Z,13.93
2018-12-01T01:13:54.013Z,13.70
2018-12-01T01:16:23.695Z,13.47
2018-12-01T01:18:53.192Z,14.10
2018-12-01T01:21:22.803Z,12.03
2018-12-01T01:23:52.752Z,13.03
2018-12-01T01:26:22.670Z,14.30
2018-12-01T01:28:52.281Z,12.97
2018-12-01T01:31:21.997Z,12.80
2018-12-01T01:33:51.584Z,11.70
2018-12-01T01:36:21.483Z,13.30
2018-12-01T01:38:51.437Z,12.63
2018-12-01T01:41:21.019Z,12.67
2018-12-01T01:43:50.533Z,13.30
2018-12-01T01:46:20.434Z,11.93
2018-12-01T01:48:50.194Z,13.97
2018-12-01T01:51:19.843Z,12.43
2018-12-01T01:53:49.754Z,14.07
2018-12-01T01:56:19.916Z,12.27
2018-12-01T01:58:49.829Z,14.80
2018-12-01T02:01:19.721Z,12.87
2018-12-01T02:03:49.517Z,12.77
2018-12-01T02:06:19.201Z,13.30
2018-12-01T02:08:49.567Z,16.60
2018-12-01T02:11:19.709Z,12.60
2018-12-01T02:13:49.214Z,12.80
2018-12-01T02:16:18.953Z,12.83
2018-12-01T02:18:48.749Z,12.97
2018-12-01T02:21:18.602Z,15.03
2018-12-01T02:23:48.627Z,15.03
2018-12-01T02:26:18.457Z,13.40
2018-12-01T02:28:48.190Z,16.20
2018-12-01T02:31:17.929Z,16.23
2018-12-01T02:33:47.925Z,15.47
2018-12-01T02:36:17.641Z,11.97
2018-12-01T02:38:48.238Z,15.53
2018-12-01T02:41:18.070Z,16.43
2018-12-01T02:43:57.483Z,15.53
2018-12-01T02:46:38.179Z,19.00
2018-12-01T02:49:07.985Z,14.57
2018-12-01T02:51:37.553Z,14.57
2018-12-01T02:54:07.181Z,13.90
2018-12-01T02:56:36.821Z,15.93
2018-12-01T02:59:06.521Z,17.87
2018-12-01T03:01:36.140Z,14.20
2018-12-01T03:04:05.861Z,16.60
2018-12-01T03:06:35.341Z,13.60
2018-12-01T03:09:06.763Z,15.83
2018-12-01T03:11:36.717Z,12.20
2018-12-01T03:14:06.558Z,14.27
2018-12-01T03:16:36.223Z,13.00
2018-12-01T03:19:06.324Z,15.00
2018-12-01T03:21:36.137Z,14.37
2018-12-01T03:24:05.840Z,11.87
2018-12-01T03:26:35.596Z,11.87
2018-12-01T03:29:05.601Z,12.30
2018-12-01T03:31:35.457Z,12.60
2018-12-01T03:34:05.226Z,12.17
2018-12-01T03:36:34.965Z,13.33
2018-12-01T03:39:05.589Z,11.97
2018-12-01T03:41:36.474Z,12.87
2018-12-01T03:44:06.524Z,13.57
2018-12-01T03:46:36.459Z,13.47
2018-12-01T03:49:06.340Z,14.37
2018-12-01T03:51:35.961Z,13.23
2018-12-01T03:54:05.765Z,12.87
2018-12-01T03:56:35.370Z,12.50
2018-12-01T03:59:05.699Z,13.50
2018-12-01T04:01:35.389Z,13.20
2018-12-01T04:04:06.062Z,15.30
2018-12-01T04:06:35.737Z,14.63
2018-12-01T04:09:12.935Z,15.90
2018-12-01T04:11:43.320Z,13.10
2018-12-01T04:14:13.177Z,14.77
2018-12-01T04:16:42.834Z,13.57
2018-12-01T04:19:12.597Z,13.80
2018-12-01T04:21:42.209Z,13.93
2018-12-01T04:24:12.009Z,13.93
2018-12-01T04:26:41.718Z,15.23
2018-12-01T04:29:11.641Z,12.40
2018-12-01T04:31:41.382Z,12.60
2018-12-01T04:34:11.022Z,14.20
2018-12-01T04:36:40.534Z,13.57
2018-12-01T04:39:10.239Z,13.20
2018-12-01T04:41:41.039Z,15.30
2018-12-01T04:44:10.657Z,14.30
2018-12-01T04:46:42.657Z,16.13
2018-12-01T04:49:12.642Z,14.53
2018-12-01T04:51:42.577Z,13.70
2018-12-01T04:54:12.168Z,13.17
2018-12-01T04:56:42.817Z,11.93
2018-12-01T04:59:13.402Z,13.63
2018-12-01T05:01:43.083Z,13.70
2018-12-01T05:04:12.743Z,15.73
2018-12-01T05:06:42.567Z,11.97
2018-12-01T05:09:12.985Z,11.53
2018-12-01T05:11:43.020Z,14.53
2018-12-01T05:14:12.707Z,13.83
2018-12-01T05:16:42.200Z,13.27
2018-12-01T05:19:11.928Z,12.07
2018-12-01T05:21:41.408Z,10.73
2018-12-01T05:24:11.112Z,10.43
2018-12-01T05:26:41.256Z,13.00
2018-12-01T05:29:10.337Z,11.17
2018-12-01T05:31:40.249Z,10.33
2018-12-01T05:34:10.191Z,10.63
2018-12-01T05:36:39.821Z,11.10
2018-12-01T05:39:10.516Z,9.20
2018-12-01T05:41:40.474Z,10.00
2018-12-01T05:44:10.159Z,10.53
2018-12-01T05:46:39.785Z,10.57
2018-12-01T05:49:09.251Z,9.17
2018-12-01T05:51:39.049Z,9.67
2018-12-01T05:54:08.485Z,9.73
2018-12-01T05:56:38.173Z,9.07
2018-12-01T05:59:07.717Z,9.30
2018-12-01T06:01:37.733Z,9.60
2018-12-01T06:04:07.809Z,9.80
2018-12-01T06:06:37.837Z,9.23
2018-12-01T06:09:08.898Z,9.53
2018-12-01T06:11:38.955Z,10.80
2018-12-01T06:14:08.501Z,9.07
2018-12-01T06:16:38.092Z,10.07
2018-12-01T06:19:07.924Z,10.57
2018-12-01T06:21:37.599Z,10.47
2018-12-01T06:24:07.355Z,11.23
2018-12-01T06:26:37.206Z,11.07
2018-12-01T06:29:06.984Z,14.13
2018-12-01T06:31:37.048Z,12.73
2018-12-01T06:34:06.860Z,12.20
2018-12-01T06:36:36.576Z,13.47
2018-12-01T06:39:08.058Z,14.43
2018-12-01T06:41:38.543Z,13.63
2018-12-01T06:44:08.594Z,14.80
2018-12-01T06:46:38.245Z,14.17
2018-12-01T06:49:07.993Z,15.93
2018-12-01T06:51:39.125Z,15.17
2018-12-01T06:54:08.924Z,15.20
2018-12-01T06:56:38.506Z,15.87
2018-12-01T06:59:08.143Z,15.13
2018-12-01T07:01:38.024Z,15.33
2018-12-01T07:04:08.085Z,17.43
2018-12-01T07:06:37.660Z,16.50
2018-12-01T07:09:09.878Z,16.67
2018-12-01T07:11:39.594Z,15.47
2018-12-01T07:14:09.294Z,16.27
2018-12-01T07:16:39.172Z,17.30
2018-12-01T07:19:17.586Z,14.97
2018-12-01T07:21:47.236Z,17.23
2018-12-01T07:24:16.935Z,16.50
2018-12-01T07:26:47.338Z,16.53
2018-12-01T07:29:17.155Z,17.07
2018-12-01T07:31:47.090Z,15.27
2018-12-01T07:34:16.777Z,18.03
2018-12-01T07:36:46.953Z,19.10
2018-12-01T07:39:16.778Z,19.07
2018-12-01T07:41:46.273Z,17.60
2018-12-01T07:44:15.966Z,15.67
2018-12-01T07:46:46.349Z,16.83
2018-12-01T07:49:16.287Z,17.40
2018-12-01T07:51:45.989Z,16.20
2018-12-01T07:54:15.778Z,18.50
2018-12-01T07:56:45.577Z,18.37
2018-12-01T07:59:15.126Z,17.90
2018-12-01T08:01:44.612Z,15.53
2018-12-01T08:04:14.376Z,18.37
2018-12-01T08:06:44.546Z,17.40
2018-12-01T08:09:14.050Z,18.40
2018-12-01T08:11:43.985Z,16.30
2018-12-01T08:14:13.689Z,18.37
2018-12-01T08:16:43.544Z,20.13
2018-12-01T08:19:13.559Z,17.23
2018-12-01T08:21:43.308Z,19.03
2018-12-01T08:24:13.377Z,20.70
2018-12-01T08:26:42.994Z,17.73
2018-12-01T08:29:12.498Z,17.73
2018-12-01T08:31:42.189Z,17.43
2018-12-01T08:34:11.849Z,17.87
2018-12-01T08:36:41.684Z,18.13
2018-12-01T08:39:11.473Z,18.17
2018-12-01T08:41:41.525Z,17.60
2018-12-01T08:44:11.431Z,17.40
2018-12-01T08:46:41.011Z,18.17
2018-12-01T08:49:10.577Z,18.13
2018-12-01T08:51:40.283Z,18.03
2018-12-01T08:54:10.204Z,17.30
2018-12-01T08:56:39.813Z,19.67
2018-12-01T08:59:09.458Z,17.90
2018-12-01T09:01:39.526Z,19.27
2018-12-01T09:04:09.422Z,19.63
2018-12-01T09:06:39.276Z,17.30
2018-12-01T09:09:09.312Z,18.33
2018-12-01T09:11:39.411Z,18.30
2018-12-01T09:14:09.105Z,17.37
2018-12-01T09:16:38.867Z,15.87
2018-12-01T09:19:08.729Z,19.10
2018-12-01T09:21:38.698Z,16.83
2018-12-01T09:24:08.485Z,16.37
2018-12-01T09:26:38.188Z,17.07
2018-12-01T09:29:07.725Z,15.43
2018-12-01T09:31:38.043Z,17.00
2018-12-01T09:34:07.890Z,14.00
2018-12-01T09:36:37.798Z,15.27
2018-12-01T09:39:09.080Z,16.23
2018-12-01T09:41:39.509Z,13.73
2018-12-01T09:44:09.200Z,15.13
2018-12-01T09:46:39.046Z,12.23
2018-12-01T09:49:08.698Z,13.07
2018-12-01T09:51:38.548Z,12.93
2018-12-01T09:54:08.260Z,12.50
2018-12-01T09:56:37.991Z,13.67
2018-12-01T09:59:07.575Z,13.00
2018-12-01T10:01:37.677Z,13.27
2018-12-01T10:04:07.327Z,12.50
2018-12-01T10:06:37.536Z,14.27
2018-12-01T10:09:09.335Z,13.23
2018-12-01T10:11:39.941Z,13.63
2018-12-01T10:14:10.097Z,12.10
2018-12-01T10:16:39.830Z,11.80
2018-12-01T10:19:10.079Z,13.03
2018-12-01T10:21:39.091Z,12.80
2018-12-01T10:24:08.961Z,11.83
2018-12-01T10:26:38.632Z,12.87
2018-12-01T10:29:08.213Z,13.23
2018-12-01T10:31:38.070Z,13.20
2018-12-01T10:34:07.653Z,10.53
2018-12-01T10:36:37.380Z,13.37
2018-12-01T10:39:09.664Z,12.40
2018-12-01T10:41:39.325Z,13.13
2018-12-01T10:44:09.222Z,12.00
2018-12-01T10:46:39.057Z,12.80
2018-12-01T10:49:08.772Z,11.20
2018-12-01T10:51:38.692Z,11.87
2018-12-01T10:54:08.437Z,12.33
2018-12-01T10:56:38.213Z,12.10
2018-12-01T10:59:07.809Z,12.13
2018-12-01T11:01:42.896Z,12.80
2018-12-01T11:04:17.692Z,12.63
2018-12-01T11:06:47.640Z,11.73
2018-12-01T11:09:17.200Z,13.70
2018-12-01T11:11:46.962Z,11.10
2018-12-01T11:14:16.815Z,11.30
2018-12-01T11:16:46.560Z,12.40
2018-12-01T11:19:16.338Z,10.93
2018-12-01T11:21:46.977Z,12.50
2018-12-01T11:24:16.673Z,11.93
2018-12-01T11:26:46.405Z,10.83
2018-12-01T11:29:16.154Z,12.63
2018-12-01T11:31:45.920Z,12.80
2018-12-01T11:34:16.060Z,12.27
2018-12-01T11:36:49.989Z,12.17
2018-12-01T11:39:19.972Z,11.07
2018-12-01T11:41:49.624Z,9.67
2018-12-01T11:44:19.108Z,9.87
2018-12-01T11:46:49.711Z,9.60
2018-12-01T11:49:19.397Z,10.23
2018-12-01T11:51:48.972Z,10.00
2018-12-01T11:54:18.585Z,12.13
2018-12-01T11:56:48.330Z,10.03
2018-12-01T11:59:18.026Z,9.60
2018-12-01T12:01:48.325Z,9.80
2018-12-01T12:04:17.801Z,11.33
2018-12-01T12:06:47.817Z,10.60
2018-12-01T12:09:17.325Z,9.27
2018-12-01T12:11:47.286Z,11.73
2018-12-01T12:14:17.165Z,9.90
2018-12-01T12:16:47.397Z,10.07
2018-12-01T12:19:16.982Z,8.90
2018-12-01T12:21:47.330Z,10.10
2018-12-01T12:24:16.803Z,10.90
2018-12-01T12:26:46.605Z,10.63
2018-12-01T12:29:16.469Z,11.30
2018-12-01T12:31:46.479Z,12.43
2018-12-01T12:34:16.217Z,11.43
2018-12-01T12:36:45.984Z,11.27
2018-12-01T12:39:16.105Z,12.67
2018-12-01T12:41:45.650Z,11.60
2018-12-01T12:44:15.594Z,12.30
2018-12-01T12:46:45.261Z,12.37
2018-12-01T12:49:15.124Z,12.53
2018-12-01T12:51:44.679Z,12.23
2018-12-01T12:54:14.535Z,13.60
2018-12-01T12:56:44.252Z,12.60
2018-12-01T12:59:13.833Z,15.13
2018-12-01T13:01:43.422Z,14.33
2018-12-01T13:04:13.470Z,14.70
2018-12-01T13:06:43.050Z,13.57
2018-12-01T13:09:12.566Z,15.70
2018-12-01T13:11:42.260Z,14.83
2018-12-01T13:14:12.094Z,15.37
2018-12-01T13:16:41.985Z,17.30
2018-12-01T13:19:11.993Z,15.03
2018-12-01T13:21:41.800Z,15.87
2018-12-01T13:24:12.587Z,17.80
2018-12-01T13:26:42.657Z,18.40
2018-12-01T13:29:12.506Z,16.83
2018-12-01T13:31:42.412Z,18.20
2018-12-01T13:34:12.703Z,19.53
2018-12-01T13:36:42.508Z,18.13
2018-12-01T13:39:12.233Z,19.20
2018-12-01T13:41:42.167Z,20.83
2018-12-01T13:44:11.662Z,20.30
2018-12-01T13:46:41.353Z,20.20
2018-12-01T13:49:11.218Z,19.23
2018-12-01T13:51:41.306Z,19.77
2018-12-01T13:54:11.045Z,22.67
2018-12-01T13:56:41.069Z,21.80
2018-12-01T13:59:10.928Z,23.17
2018-12-01T14:01:40.817Z,25.03
2018-12-01T14:04:10.681Z,20.10
2018-12-01T14:06:40.330Z,22.33
2018-12-01T14:09:10.324Z,23.70
2018-12-01T14:11:39.894Z,21.77
2018-12-01T14:14:09.780Z,24.03
2018-12-01T14:16:39.465Z,20.90
2018-12-01T14:19:09.450Z,21.83
2018-12-01T14:21:39.451Z,20.70
2018-12-01T14:24:09.749Z,22.57
2018-12-01T14:26:39.349Z,22.63
2018-12-01T14:29:08.948Z,18.20
2018-12-01T14:31:38.729Z,20.27
2018-12-01T14:34:08.599Z,18.17
2018-12-01T14:36:38.067Z,18.97
2018-12-01T14:39:08.877Z,18.67
2018-12-01T14:41:38.499Z,20.07
2018-12-01T14:44:08.401Z,19.93
2018-12-01T14:46:38.237Z,21.77
2018-12-01T14:49:07.974Z,19.77
2018-12-01T14:51:37.638Z,18.47
2018-12-01T14:54:07.853Z,22.07
2018-12-01T14:56:37.408Z,22.23
2018-12-01T14:59:07.407Z,19.10
2018-12-01T15:01:38.230Z,20.27
2018-12-01T15:04:08.033Z,22.10
2018-12-01T15:06:37.742Z,18.67
2018-12-01T15:09:09.695Z,25.17
2018-12-01T15:11:39.385Z,22.47
2018-12-01T15:14:09.138Z,22.23
2018-12-01T15:16:39.110Z,23.27
2018-12-01T15:19:08.922Z,20.57
2018-12-01T15:21:38.373Z,22.83
2018-12-01T15:24:08.449Z,26.33
2018-12-01T15:26:38.533Z,23.30
2018-12-01T15:29:08.341Z,24.67
2018-12-01T15:31:38.457Z,28.47
2018-12-01T15:34:08.650Z,26.67
2018-12-01T15:36:38.364Z,27.43
2018-12-01T15:39:11.181Z,27.47
2018-12-01T15:41:41.005Z,24.83
2018-12-01T15:44:10.998Z,26.20
2018-12-01T15:46:41.485Z,23.63
2018-12-01T15:49:11.266Z,22.47
2018-12-01T15:51:41.037Z,26.63
2018-12-01T15:54:11.069Z,22.47
2018-12-01T15:56:41.691Z,23.80
2018-12-01T15:59:11.404Z,20.70
2018-12-01T16:01:41.629Z,22.43
2018-12-01T16:04:11.657Z,21.23
2018-12-01T16:06:41.245Z,20.73
2018-12-01T16:09:11.021Z,22.83
2018-12-01T16:11:41.093Z,20.70
2018-12-01T16:14:11.497Z,22.93
2018-12-01T16:16:42.642Z,24.50
2018-12-01T16:19:12.801Z,24.43
2018-12-01T16:21:43.213Z,22.97
2018-12-01T16:24:14.747Z,24.03
2018-12-01T16:26:45.859Z,24.37
2018-12-01T16:29:16.701Z,21.43
2018-12-01T16:31:46.842Z,23.23
2018-12-01T16:34:18.933Z,23.27
2018-12-01T16:36:51.477Z,22.10
2018-12-01T16:39:21.184Z,22.03
2018-12-01T16:41:51.564Z,20.83
2018-12-01T16:44:21.315Z,20.23
2018-12-01T16:46:51.402Z,20.40
2018-12-01T16:49:21.449Z,21.60
2018-12-01T16:51:51.959Z,22.73
2018-12-01T16:54:22.527Z,20.60
2018-12-01T16:56:52.601Z,19.60
2018-12-01T16:59:22.573Z,18.03
2018-12-01T17:01:52.751Z,19.93
2018-12-01T17:04:22.860Z,22.43
2018-12-01T17:06:54.095Z,21.23
2018-12-01T17:09:25.647Z,20.20
2018-12-01T17:11:56.171Z,21.93
2018-12-01T17:14:25.828Z,21.37
2018-12-01T17:16:55.681Z,23.63
2018-12-01T17:19:25.708Z,22.10
2018-12-01T17:21:56.250Z,21.53
2018-12-01T17:24:26.859Z,20.50
2018-12-01T17:26:56.617Z,18.33
2018-12-01T17:29:26.204Z,22.97
2018-12-01T17:31:56.573Z,21.10
2018-12-01T17:34:26.374Z,22.67
2018-12-01T17:36:56.228Z,20.97
2018-12-01T17:39:26.181Z,22.33
2018-12-01T17:41:57.920Z,19.67
2018-12-01T17:44:27.985Z,19.17
2018-12-01T17:46:58.047Z,19.60
2018-12-01T17:49:27.806Z,21.93
2018-12-01T17:51:57.862Z,20.93
2018-12-01T17:54:28.157Z,20.20
2018-12-01T17:56:58.330Z,20.80
2018-12-01T17:59:29.165Z,23.73
2018-12-01T18:01:59.798Z,21.53
2018-12-01T18:04:29.898Z,20.37
2018-12-01T18:07:00.484Z,21.10
2018-12-01T18:09:30.957Z,23.27
2018-12-01T18:12:00.923Z,20.37
2018-12-01T18:14:32.026Z,18.10
2018-12-01T18:17:02.089Z,23.53
2018-12-01T18:19:32.300Z,23.10
2018-12-01T18:22:02.932Z,21.47
2018-12-01T18:24:34.765Z,19.37
2018-12-01T18:27:06.326Z,21.70
2018-12-01T18:29:37.225Z,21.60
2018-12-01T18:32:11.428Z,20.33
2018-12-01T18:34:43.060Z,20.60
2018-12-01T18:37:14.821Z,23.60
2018-12-01T18:39:45.629Z,18.17
2018-12-01T18:42:15.922Z,23.20
2018-12-01T18:44:45.974Z,24.13
2018-12-01T18:47:16.569Z,22.80
2018-12-01T18:49:48.808Z,22.33
2018-12-01T18:52:19.393Z,21.97
2018-12-01T18:54:49.813Z,21.90
2018-12-01T18:57:20.292Z,22.90
2018-12-01T18:59:51.762Z,24.07
2018-12-01T19:02:22.433Z,22.50
2018-12-01T19:04:53.145Z,22.90
2018-12-01T19:07:24.669Z,23.40
2018-12-01T19:09:55.893Z,24.57
2018-12-01T19:12:27.748Z,21.90
2018-12-01T19:14:58.740Z,21.97
2018-12-01T19:17:29.766Z,22.60
2018-12-01T19:20:02.825Z,22.83
2018-12-01T19:22:33.217Z,24.63
2018-12-01T19:25:05.429Z,19.30
2018-12-01T19:27:36.543Z,23.93
2018-12-01T19:30:09.042Z,23.93
2018-12-01T19:32:39.505Z,25.50
2018-12-01T19:35:16.062Z,22.83
2018-12-01T19:37:47.562Z,23.77
2018-12-01T19:40:22.649Z,24.60
2018-12-01T19:42:53.533Z,23.37
2018-12-01T19:45:24.888Z,24.77
2018-12-01T19:47:55.153Z,21.50
2018-12-01T19:50:27.105Z,21.87
2018-12-01T19:52:58.653Z,25.83
2018-12-01T19:55:29.981Z,23.60
2018-12-01T19:58:00.452Z,22.17
2018-12-01T20:00:35.726Z,23.33
2018-12-01T20:03:09.461Z,23.30
2018-12-01T20:05:40.176Z,21.13
2018-12-01T20:08:10.742Z,22.67
2018-12-01T20:10:43.557Z,25.27
2018-12-01T20:13:22.303Z,22.03
2018-12-01T20:15:56.505Z,19.50
2018-12-01T20:18:29.030Z,25.17
2018-12-01T20:21:00.349Z,24.77
2018-12-01T20:23:31.527Z,23.27
2018-12-01T20:26:02.512Z,22.83
2018-12-01T20:28:34.160Z,23.17
2018-12-01T20:31:04.976Z,21.70
2018-12-01T20:33:35.969Z,24.00
2018-12-01T20:37:13.015Z,23.63
2018-12-01T20:39:45.792Z,22.73
2018-12-01T20:42:16.213Z,24.53
2018-12-01T20:44:47.926Z,23.73
2018-12-01T20:47:18.987Z,22.13
2018-12-01T20:49:49.264Z,22.07
2018-12-01T20:52:19.590Z,23.03
2018-12-01T20:54:50.714Z,21.43
2018-12-01T20:57:30.371Z,20.30
2018-12-01T21:00:01.334Z,20.87
2018-12-01T21:02:31.748Z,26.57
2018-12-01T21:05:04.029Z,23.03
2018-12-01T21:07:35.012Z,23.13
2018-12-01T21:10:08.414Z,21.57
2018-12-01T21:12:39.364Z,22.37
2018-12-01T21:15:11.308Z,22.33
2018-12-01T21:17:43.214Z,23.07
2018-12-01T21:20:15.308Z,22.73
2018-12-01T21:22:47.105Z,19.73
2018-12-01T21:25:18.840Z,22.57
2018-12-01T21:27:49.336Z,25.80
2018-12-01T21:30:20.906Z,23.37
2018-12-01T21:32:54.577Z,20.97
2018-12-01T21:35:25.088Z,22.80
2018-12-01T21:37:55.544Z,21.03
2018-12-01T21:40:26.926Z,27.23
2018-12-01T21:42:57.276Z,22.77
2018-12-01T21:45:28.274Z,25.37
2018-12-01T21:47:58.415Z,23.83
2018-12-01T21:50:29.685Z,23.50
2018-12-01T21:53:00.150Z,20.67
2018-12-01T21:55:30.684Z,22.87
2018-12-01T21:58:01.310Z,21.17
2018-12-01T22:00:32.086Z,21.07
2018-12-01T22:03:03.679Z,22.23
2018-12-01T22:05:43.872Z,20.53
2018-12-01T22:08:15.394Z,21.30
2018-12-01T22:10:49.328Z,21.03
2018-12-01T22:13:19.666Z,22.60
2018-12-01T22:15:50.074Z,20.43
2018-12-01T22:18:20.104Z,22.97
2018-12-01T22:20:50.241Z,20.13
2018-12-01T22:23:20.166Z,23.60
2018-12-01T22:25:50.087Z,23.13
2018-12-01T22:28:19.958Z,22.17
2018-12-01T22:30:51.385Z,22.27
2018-12-01T22:33:22.897Z,22.37
2018-12-01T22:35:53.392Z,22.63
2018-12-01T22:38:24.467Z,24.30
2018-12-01T22:40:54.908Z,21.03
2018-12-01T22:43:24.933Z,22.83
2018-12-01T22:45:55.209Z,23.37
2018-12-01T22:48:27.298Z,19.80
2018-12-01T22:50:56.777Z,21.53
2018-12-01T22:53:27.422Z,21.10
2018-12-01T22:56:02.233Z,20.23
2018-12-01T22:58:32.356Z,21.03
2018-12-01T23:01:02.048Z,19.60
2018-12-01T23:03:33.691Z,20.53
2018-12-01T23:06:03.445Z,20.47
2018-12-01T23:08:34.013Z,20.13
2018-12-01T23:11:03.770Z,20.83
2018-12-01T23:13:33.641Z,19.73
2018-12-01T23:16:03.639Z,21.80
2018-12-01T23:18:33.664Z,19.83
2018-12-01T23:21:03.683Z,21.00
2018-12-01T23:23:34.979Z,23.20
2018-12-01T23:26:05.134Z,23.63
2018-12-01T23:28:35.134Z,23.17
2018-12-01T23:31:05.599Z,21.37
2018-12-01T23:33:35.983Z,22.17
2018-12-01T23:36:06.381Z,21.87
2018-12-01T23:38:36.212Z,21.57
2018-12-01T23:41:06.415Z,20.80
2018-12-01T23:43:38.328Z,23.47
2018-12-01T23:46:08.217Z,23.27
2018-12-01T23:48:38.928Z,21.33
2018-12-01T23:51:08.807Z,22.73
2018-12-01T23:53:38.765Z,25.53
2018-12-01T23:56:09.741Z,21.93
2018-12-01T23:58:39.718Z,22.00
